Frostburg, Pennsylvania
Current Conditions -  °F | °C
As of 8:53 PM on Wednesday 17 Dec 2014 (Local Time) from KDUJ Reporting Station
Overcast Overcast  
Wind Chill: 17°   Ceiling: 1800
Heat Index: 28°   Visibility: 10mi
Dew Point: 22°   Wind: 15mph
Humidity: 78%   Direction: 270°W
Pressure: 30"   Gusts: 21mph
Location:  40.96°N, 79.03°W
Report Text: KDUJ 180153Z AUTO 27013G18KT 10SM OVC018 M02/M06 A3000 RMK AO2 SLP177 T10221056
Loading
Personal Weather Stations






























Interactive Weather Map New forecast layout! Learn more

10-Day Weather Forecast

Advertisements
Track Severe Weather on mobile